Time;durP1;ratioP1;P1;durP2;ratioP2;P2;SDS_P1;SDS_P2;PMS_P1;PMS_P2;Temp;Humidity;BMP_temperature;BMP_pressure;BME280_temperature;BME280_humidity;BME280_pressure;Samples;Min_cycle;Max_cycle;Signal;HPM_P1;HPM_P2
2024/01/14 00:00:42;;;;;;;40.85;19.08;;;4.80;99.90;;;;;;5003773;28;20189;-70
2024/01/14 00:03:08;;;;;;;36.67;20.30;;;4.80;99.90;;;;;;5002794;28;20247;-70
2024/01/14 00:05:39;;;;;;;39.67;21.50;;;4.80;99.90;;;;;;4980855;28;20211;-70
2024/01/14 00:08:05;;;;;;;41.22;20.52;;;4.80;99.90;;;;;;4969269;28;20192;-70
2024/01/14 00:10:31;;;;;;;38.17;18.65;;;4.80;99.90;;;;;;5001006;28;20304;-69
2024/01/14 00:12:59;;;;;;;35.87;19.00;;;4.80;99.90;;;;;;5001121;28;20784;-70
2024/01/14 00:15:25;;;;;;;34.53;19.50;;;4.80;99.90;;;;;;5015699;28;20791;-70
2024/01/14 00:17:54;;;;;;;40.25;19.17;;;4.80;99.90;;;;;;4985385;28;20236;-69
2024/01/14 00:20:24;;;;;;;38.47;20.08;;;4.80;99.90;;;;;;4999091;28;20228;-70
2024/01/14 00:22:56;;;;;;;42.45;19.67;;;4.80;99.90;;;;;;5018501;28;20304;-70
2024/01/14 00:25:24;;;;;;;41.80;21.50;;;4.80;99.90;;;;;;5005174;28;20312;-70
2024/01/14 00:27:50;;;;;;;35.50;20.45;;;4.80;99.90;;;;;;5019622;28;21075;-70
2024/01/14 00:30:17;;;;;;;38.57;20.07;;;4.80;99.90;;;;;;4986960;28;20249;-70
2024/01/14 00:32:43;;;;;;;38.58;19.52;;;4.80;99.90;;;;;;5001936;28;21207;-70
2024/01/14 00:35:12;;;;;;;38.83;19.87;;;4.80;99.90;;;;;;5017498;28;20279;-70
2024/01/14 00:37:41;;;;;;;37.85;21.52;;;4.80;99.90;;;;;;5020009;28;20541;-69
2024/01/14 00:40:10;;;;;;;34.60;19.27;;;4.80;99.90;;;;;;5001164;28;20374;-70
2024/01/14 00:42:37;;;;;;;43.13;21.10;;;4.80;99.90;;;;;;5019613;28;21096;-70
2024/01/14 00:45:03;;;;;;;37.25;19.00;;;4.80;99.90;;;;;;5018255;28;21030;-69
2024/01/14 00:47:30;;;;;;;34.92;18.85;;;4.80;99.90;;;;;;4985390;28;20197;-70
2024/01/14 00:49:57;;;;;;;36.08;19.23;;;4.80;99.90;;;;;;5017131;28;20184;-70
2024/01/14 00:52:23;;;;;;;39.42;20.83;;;4.80;99.90;;;;;;5005534;28;20209;-70
2024/01/14 00:54:54;;;;;;;39.75;20.75;;;4.80;99.90;;;;;;5019313;28;20376;-70
2024/01/14 00:57:23;;;;;;;37.90;19.95;;;4.80;99.90;;;;;;5001512;28;20292;-70
2024/01/14 00:59:52;;;;;;;38.53;20.52;;;4.80;99.90;;;;;;5002885;28;20667;-70
2024/01/14 01:02:18;;;;;;;36.37;20.77;;;4.80;99.90;;;;;;5019263;28;20181;-70
2024/01/14 01:04:44;;;;;;;39.38;19.60;;;4.80;99.90;;;;;;4999616;28;20259;-69
2024/01/14 01:07:12;;;;;;;37.90;19.23;;;4.80;99.90;;;;;;4984860;28;20196;-70
2024/01/14 01:09:38;;;;;;;36.05;19.40;;;4.80;99.90;;;;;;4990234;28;20448;-70
2024/01/14 01:12:07;;;;;;;33.67;19.40;;;4.80;99.90;;;;;;5021720;28;20967;-70
2024/01/14 01:14:38;;;;;;;35.80;20.73;;;4.80;99.90;;;;;;5023847;28;20427;-70
2024/01/14 01:17:04;;;;;;;37.00;21.03;;;4.80;99.90;;;;;;5004618;28;20607;-69
2024/01/14 01:19:30;;;;;;;39.65;20.63;;;4.80;99.90;;;;;;5006033;28;20443;-70
2024/01/14 01:22:01;;;;;;;39.28;20.33;;;4.80;99.90;;;;;;4985971;28;20220;-70
2024/01/14 01:24:30;;;;;;;38.33;20.88;;;4.80;99.90;;;;;;5000559;28;20210;-70
2024/01/14 01:26:56;;;;;;;35.97;21.40;;;4.80;99.90;;;;;;5006045;28;20207;-70
2024/01/14 01:29:25;;;;;;;38.17;20.65;;;4.80;99.90;;;;;;5006143;28;20466;-70
2024/01/14 01:31:53;;;;;;;41.05;19.67;;;4.80;99.90;;;;;;4991095;28;20937;-70
2024/01/14 01:34:19;;;;;;;43.15;20.02;;;4.80;99.90;;;;;;5007449;28;20205;-69
2024/01/14 01:36:47;;;;;;;39.43;21.40;;;4.80;99.90;;;;;;4991451;28;20564;-70
2024/01/14 01:39:14;;;;;;;40.42;20.20;;;4.80;99.90;;;;;;5022847;28;20443;-70
2024/01/14 01:41:42;;;;;;;38.83;20.85;;;4.80;99.90;;;;;;4987706;28;20189;-70
2024/01/14 01:44:11;;;;;;;42.20;20.17;;;4.80;99.90;;;;;;5007060;28;20221;-70
2024/01/14 01:46:37;;;;;;;38.90;21.98;;;4.80;99.90;;;;;;4988638;28;20624;-69
2024/01/14 01:49:04;;;;;;;42.35;18.65;;;4.80;99.90;;;;;;5004742;28;20311;-71
2024/01/14 01:51:33;;;;;;;36.92;20.20;;;4.80;99.90;;;;;;4987610;28;20477;-70
2024/01/14 01:53:59;;;;;;;38.17;19.73;;;4.80;99.90;;;;;;4987714;28;20299;-69
2024/01/14 01:56:27;;;;;;;40.20;20.48;;;4.80;99.90;;;;;;5005049;28;20274;-69
2024/01/14 01:58:53;;;;;;;36.85;18.85;;;4.80;99.90;;;;;;5002213;28;20225;-69
2024/01/14 02:01:21;;;;;;;37.95;21.23;;;4.80;99.90;;;;;;4988733;28;20181;-69
2024/01/14 02:03:50;;;;;;;34.90;19.30;;;4.80;99.90;;;;;;5022510;28;20263;-69
2024/01/14 02:06:17;;;;;;;36.45;19.90;;;4.90;99.90;;;;;;5022379;28;20185;-69
2024/01/14 02:08:46;;;;;;;38.50;20.33;;;4.80;99.90;;;;;;4988656;28;20706;-69
2024/01/14 02:11:12;;;;;;;38.35;19.42;;;4.80;99.90;;;;;;5021977;28;20216;-69
2024/01/14 02:13:40;;;;;;;37.50;19.67;;;4.80;99.90;;;;;;5021995;28;20216;-71
2024/01/14 02:16:16;;;;;;;43.10;20.63;;;4.80;99.90;;;;;;5004824;28;20584;-70
2024/01/14 02:18:42;;;;;;;39.80;21.42;;;4.80;99.90;;;;;;4988392;28;20598;-71
2024/01/14 02:21:10;;;;;;;38.63;20.63;;;4.80;99.90;;;;;;5023281;28;20787;-68
2024/01/14 02:23:46;;;;;;;41.58;21.55;;;4.80;99.90;;;;;;4991341;28;20773;-70
2024/01/14 02:26:14;;;;;;;37.45;22.08;;;4.80;99.90;;;;;;5023650;28;20671;-71
2024/01/14 02:28:44;;;;;;;34.67;18.83;;;4.80;99.90;;;;;;4989879;28;20320;-69
2024/01/14 02:31:12;;;;;;;31.85;20.02;;;4.80;99.90;;;;;;5001068;28;20205;-70
2024/01/14 02:33:40;;;;;;;41.63;21.10;;;4.80;99.90;;;;;;4990850;28;20224;-69
2024/01/14 02:36:06;;;;;;;35.77;20.93;;;4.80;99.90;;;;;;5024897;28;20686;-69
2024/01/14 02:38:34;;;;;;;38.42;21.02;;;4.80;99.90;;;;;;5007146;28;20558;-69
2024/01/14 02:41:02;;;;;;;32.92;19.42;;;4.80;99.90;;;;;;4997909;28;20192;-69
2024/01/14 02:43:31;;;;;;;34.17;20.27;;;4.80;99.90;;;;;;5007301;28;20272;-69
2024/01/14 02:45:57;;;;;;;35.65;19.88;;;4.80;99.90;;;;;;4989897;28;20209;-70
2024/01/14 02:48:23;;;;;;;38.13;20.67;;;4.80;99.90;;;;;;5006293;28;20197;-69
2024/01/14 02:50:49;;;;;;;44.30;20.67;;;4.80;99.90;;;;;;5004761;28;20201;-69
2024/01/14 02:53:18;;;;;;;41.72;20.13;;;4.80;99.90;;;;;;5006672;28;20347;-69
2024/01/14 02:55:46;;;;;;;39.75;20.13;;;4.80;99.90;;;;;;5004086;28;20201;-69
2024/01/14 02:58:12;;;;;;;44.80;21.92;;;4.80;99.90;;;;;;5021350;28;20304;-68
2024/01/14 03:00:40;;;;;;;35.85;18.98;;;4.80;99.90;;;;;;5004048;28;20185;-69
2024/01/14 03:03:07;;;;;;;42.83;21.70;;;4.80;99.90;;;;;;5005556;28;20602;-71
2024/01/14 03:05:33;;;;;;;34.30;19.67;;;4.80;99.90;;;;;;4989734;28;20542;-71
2024/01/14 03:08:01;;;;;;;36.90;20.03;;;4.80;99.90;;;;;;5003521;28;20188;-72
2024/01/14 03:10:27;;;;;;;37.28;19.52;;;4.80;99.90;;;;;;4987825;28;20466;-71
2024/01/14 03:12:53;;;;;;;38.05;19.95;;;4.80;99.90;;;;;;4986618;28;20212;-71
2024/01/14 03:15:23;;;;;;;35.30;21.40;;;4.80;99.90;;;;;;5021196;28;20200;-71
2024/01/14 03:17:49;;;;;;;35.67;20.38;;;4.80;99.90;;;;;;5002859;28;20314;-71
2024/01/14 03:20:15;;;;;;;41.72;21.70;;;4.80;99.90;;;;;;5019837;28;20193;-72
2024/01/14 03:22:41;;;;;;;40.13;21.37;;;4.80;99.90;;;;;;5005707;28;20618;-71
2024/01/14 03:25:07;;;;;;;44.08;22.10;;;4.80;99.90;;;;;;5003050;28;20475;-70
2024/01/14 03:27:35;;;;;;;40.67;21.27;;;4.80;99.90;;;;;;4986933;28;20702;-73
2024/01/14 03:30:05;;;;;;;38.20;19.65;;;4.80;99.90;;;;;;5020185;28;20193;-71
2024/01/14 03:32:34;;;;;;;38.13;20.80;;;4.80;99.90;;;;;;5020781;22;20796;-31
2024/01/14 03:35:01;;;;;;;36.80;19.13;;;4.80;99.90;;;;;;5036340;28;20219;-30
2024/01/14 03:37:29;;;;;;;39.33;20.20;;;4.80;99.90;;;;;;5037289;28;20212;-30
2024/01/14 03:39:57;;;;;;;37.47;19.85;;;4.90;99.90;;;;;;5038666;28;20208;-34
2024/01/14 03:42:26;;;;;;;36.60;21.02;;;4.80;99.90;;;;;;5032931;28;20313;-30
2024/01/14 03:44:56;;;;;;;37.38;19.60;;;4.80;99.90;;;;;;5037399;28;20667;-29
2024/01/14 03:47:22;;;;;;;39.92;20.08;;;4.80;99.90;;;;;;5030519;28;20193;-29
2024/01/14 03:49:49;;;;;;;35.45;19.90;;;4.80;99.90;;;;;;5036750;28;20246;-30
2024/01/14 03:52:16;;;;;;;37.40;19.63;;;4.80;99.90;;;;;;5036950;28;20192;-29
2024/01/14 03:54:43;;;;;;;40.20;20.02;;;4.80;99.90;;;;;;5036475;28;20419;-29
2024/01/14 03:57:10;;;;;;;34.88;19.30;;;4.80;99.90;;;;;;5035195;28;21067;-29
2024/01/14 03:59:38;;;;;;;34.72;19.23;;;4.80;99.90;;;;;;5040486;28;20250;-32
2024/01/14 04:02:06;;;;;;;37.00;19.83;;;4.80;99.90;;;;;;5041360;28;20868;-30
2024/01/14 04:04:36;;;;;;;34.55;19.50;;;4.80;99.90;;;;;;5040100;28;20196;-32
2024/01/14 04:07:04;;;;;;;39.05;21.15;;;4.80;99.90;;;;;;5027270;28;20188;-31
2024/01/14 04:09:31;;;;;;;33.95;19.00;;;4.80;99.90;;;;;;5040971;28;20200;-35
2024/01/14 04:11:58;;;;;;;35.20;17.98;;;4.80;99.90;;;;;;5024062;28;20204;-31
2024/01/14 04:14:25;;;;;;;33.67;18.15;;;4.80;99.90;;;;;;5039246;28;20188;-29
2024/01/14 04:16:52;;;;;;;39.60;20.60;;;4.80;99.90;;;;;;5004082;28;20235;-35
2024/01/14 04:19:19;;;;;;;37.22;19.15;;;4.80;99.90;;;;;;5047099;28;20255;-31
2024/01/14 04:21:46;;;;;;;36.08;17.98;;;4.80;99.90;;;;;;5035724;28;20185;-30
2024/01/14 04:24:13;;;;;;;34.58;19.38;;;4.80;99.90;;;;;;5035827;28;20751;-31
2024/01/14 04:26:40;;;;;;;29.88;17.33;;;4.80;99.90;;;;;;5035468;28;20268;-30
2024/01/14 04:29:06;;;;;;;32.83;19.17;;;4.80;99.90;;;;;;5036642;28;20854;-33
2024/01/14 04:31:34;;;;;;;35.88;19.05;;;4.80;99.90;;;;;;5036395;28;20443;-31
2024/01/14 04:34:03;;;;;;;31.23;17.75;;;4.80;99.90;;;;;;5038007;28;20184;-32
2024/01/14 04:36:32;;;;;;;36.60;19.20;;;4.80;99.90;;;;;;5036553;28;20201;-35
2024/01/14 04:39:01;;;;;;;33.78;18.17;;;4.80;99.90;;;;;;5035194;28;20349;-30
2024/01/14 04:41:32;;;;;;;35.17;18.45;;;4.80;99.90;;;;;;5032389;28;20183;-30
2024/01/14 04:44:00;;;;;;;34.53;18.23;;;4.80;99.90;;;;;;5034339;28;20240;-30
2024/01/14 04:46:31;;;;;;;33.63;18.38;;;4.80;99.90;;;;;;5032242;28;20184;-30
2024/01/14 04:48:58;;;;;;;34.63;18.63;;;4.80;99.90;;;;;;5017729;28;20311;-30
2024/01/14 04:51:28;;;;;;;34.28;17.60;;;4.80;99.90;;;;;;5036198;28;20204;-29
2024/01/14 04:54:02;;;;;;;33.03;18.10;;;4.80;99.90;;;;;;5036351;28;20263;-29
2024/01/14 04:56:30;;;;;;;30.52;18.05;;;4.80;99.90;;;;;;5031682;28;20201;-32
2024/01/14 04:58:57;;;;;;;33.13;17.95;;;4.80;99.90;;;;;;5034948;28;20745;-32
2024/01/14 05:01:23;;;;;;;30.45;17.25;;;4.80;99.90;;;;;;5033931;28;20189;-34
2024/01/14 05:03:50;;;;;;;29.05;16.48;;;4.80;99.90;;;;;;5036352;28;20204;-30
2024/01/14 05:06:17;;;;;;;36.42;19.17;;;4.80;99.90;;;;;;5019059;28;20204;-32
2024/01/14 05:08:43;;;;;;;32.90;17.53;;;4.80;99.90;;;;;;5037398;28;20638;-32
2024/01/14 05:11:13;;;;;;;29.83;16.25;;;4.80;99.90;;;;;;5035283;28;20288;-30
2024/01/14 05:13:42;;;;;;;29.83;17.58;;;4.80;99.90;;;;;;5036085;28;20766;-34
2024/01/14 05:16:08;;;;;;;31.90;17.58;;;4.80;99.90;;;;;;5019089;28;20190;-30
2024/01/14 05:18:36;;;;;;;34.70;18.27;;;4.80;99.90;;;;;;5036086;28;20647;-30
2024/01/14 05:21:03;;;;;;;30.00;16.73;;;4.80;99.90;;;;;;5036854;28;20797;-31
2024/01/14 05:23:29;;;;;;;32.80;18.02;;;4.80;99.90;;;;;;5032820;28;20247;-32
2024/01/14 05:25:57;;;;;;;30.98;16.65;;;4.80;99.90;;;;;;5017770;28;20169;-30
2024/01/14 05:28:26;;;;;;;31.40;17.57;;;4.80;99.90;;;;;;5037549;28;20523;-31
2024/01/14 05:30:52;;;;;;;30.92;17.13;;;4.80;99.90;;;;;;5035581;28;20457;-32
2024/01/14 05:33:18;;;;;;;33.55;17.80;;;4.80;99.90;;;;;;5037245;28;20196;-29
2024/01/14 05:35:45;;;;;;;27.83;17.60;;;4.80;99.90;;;;;;5035973;28;20691;-29
2024/01/14 05:38:14;;;;;;;32.55;16.45;;;4.80;99.90;;;;;;5035337;28;20505;-31
2024/01/14 05:40:43;;;;;;;34.28;17.88;;;4.80;99.90;;;;;;5018806;28;20699;-30
2024/01/14 05:43:10;;;;;;;30.25;16.60;;;4.80;99.90;;;;;;5016926;28;20196;-31
2024/01/14 05:45:38;;;;;;;34.40;18.33;;;4.80;99.90;;;;;;5019141;28;20194;-31
2024/01/14 05:48:06;;;;;;;32.20;17.88;;;4.80;99.90;;;;;;5036689;28;20192;-31
2024/01/14 05:50:34;;;;;;;29.98;16.90;;;4.80;99.90;;;;;;5035261;28;20207;-29
2024/01/14 05:53:01;;;;;;;34.95;18.70;;;4.80;99.90;;;;;;5019278;28;20828;-30
2024/01/14 05:55:28;;;;;;;32.65;18.05;;;4.80;99.90;;;;;;5021359;28;20184;-32
2024/01/14 05:57:55;;;;;;;32.72;17.45;;;4.80;99.90;;;;;;5039560;28;20204;-33
2024/01/14 06:00:23;;;;;;;34.50;17.00;;;4.80;99.90;;;;;;5040918;28;20722;-33
2024/01/14 06:02:49;;;;;;;30.45;17.73;;;4.80;99.90;;;;;;5036335;28;20186;-30
2024/01/14 06:05:16;;;;;;;33.80;18.08;;;4.80;99.90;;;;;;5022486;28;21057;-31
2024/01/14 06:07:42;;;;;;;31.92;17.30;;;4.80;99.90;;;;;;5039390;28;20196;-34
2024/01/14 06:10:09;;;;;;;31.50;17.83;;;4.80;99.90;;;;;;5037121;28;20212;-30
2024/01/14 06:12:35;;;;;;;42.85;18.55;;;4.80;99.90;;;;;;5039901;28;20203;-33
2024/01/14 06:15:04;;;;;;;33.47;18.65;;;4.80;99.90;;;;;;5040720;28;20300;-30
2024/01/14 06:17:33;;;;;;;30.58;18.20;;;4.80;99.90;;;;;;5040511;28;20231;-33
2024/01/14 06:20:04;;;;;;;37.53;17.45;;;4.80;99.90;;;;;;5022849;28;20228;-32
2024/01/14 06:22:30;;;;;;;32.05;18.73;;;4.80;99.90;;;;;;5023962;28;20189;-32
2024/01/14 06:25:01;;;;;;;31.88;18.08;;;4.80;99.90;;;;;;5023810;28;20306;-28
2024/01/14 06:27:27;;;;;;;30.92;16.20;;;4.80;99.90;;;;;;5007505;28;20196;-35
2024/01/14 06:29:53;;;;;;;34.83;18.10;;;4.80;99.90;;;;;;5007133;28;20688;-32
2024/01/14 06:32:20;;;;;;;31.40;17.77;;;4.80;99.90;;;;;;5022237;28;20435;-33
2024/01/14 06:34:47;;;;;;;30.48;17.48;;;4.80;99.90;;;;;;5022474;28;20189;-29
2024/01/14 06:37:13;;;;;;;30.40;16.40;;;4.80;99.90;;;;;;5005164;28;20720;-34
2024/01/14 06:39:40;;;;;;;34.50;16.98;;;4.80;99.90;;;;;;5022748;28;20435;-28
2024/01/14 06:42:09;;;;;;;32.17;16.83;;;4.80;99.90;;;;;;5022534;28;20177;-29
2024/01/14 06:44:38;;;;;;;33.37;17.17;;;4.80;99.90;;;;;;5020950;28;20294;-30
2024/01/14 06:47:04;;;;;;;34.08;17.38;;;4.80;99.90;;;;;;5020261;28;20920;-29
2024/01/14 06:49:31;;;;;;;27.60;15.67;;;4.80;99.90;;;;;;5022882;28;20206;-32
2024/01/14 06:51:58;;;;;;;34.45;17.20;;;4.80;99.90;;;;;;5004626;28;20433;-30
2024/01/14 06:54:24;;;;;;;28.17;15.60;;;4.80;99.90;;;;;;5020622;28;20177;-32
2024/01/14 06:56:51;;;;;;;33.47;19.13;;;4.80;99.90;;;;;;5021878;28;20487;-31
2024/01/14 06:59:18;;;;;;;31.05;16.05;;;4.80;99.90;;;;;;5020779;28;20221;-32
2024/01/14 07:01:46;;;;;;;26.30;15.93;;;4.80;99.90;;;;;;5021687;28;20177;-33
2024/01/14 07:04:14;;;;;;;29.60;16.27;;;4.80;99.90;;;;;;5003864;28;20186;-32
2024/01/14 07:06:42;;;;;;;32.03;16.58;;;4.80;99.90;;;;;;5018923;28;20298;-30
2024/01/14 07:09:12;;;;;;;31.58;16.67;;;4.80;99.90;;;;;;5019830;28;20805;-30
2024/01/14 07:11:38;;;;;;;35.30;16.60;;;4.80;99.90;;;;;;5019638;28;20885;-28
2024/01/14 07:14:04;;;;;;;31.75;15.82;;;4.80;99.90;;;;;;5021159;28;20176;-27
2024/01/14 07:16:30;;;;;;;29.13;16.67;;;4.80;99.90;;;;;;5019572;28;20193;-29
2024/01/14 07:18:57;;;;;;;31.15;16.60;;;4.80;99.90;;;;;;5021081;28;20286;-31
2024/01/14 07:21:24;;;;;;;30.48;16.55;;;4.80;99.90;;;;;;5018895;28;20320;-34
2024/01/14 07:23:51;;;;;;;27.10;15.18;;;4.80;99.90;;;;;;5019507;28;20613;-30
2024/01/14 07:29:08;;;;;;;29.15;14.95;;;4.80;99.90;;;;;;5012796;28;20338;-28
2024/01/14 07:31:34;;;;;;;27.37;16.13;;;4.80;99.90;;;;;;5002063;28;20284;-28
2024/01/14 07:34:01;;;;;;;33.27;17.70;;;4.80;99.90;;;;;;5019258;28;20440;-28
2024/01/14 07:36:29;;;;;;;31.15;15.60;;;4.80;99.90;;;;;;5002740;28;20436;-26
2024/01/14 07:38:55;;;;;;;29.48;16.35;;;4.80;99.90;;;;;;5015269;28;20244;-28
2024/01/14 07:41:21;;;;;;;31.08;16.52;;;4.80;99.90;;;;;;5004222;28;20182;-27
2024/01/14 07:43:48;;;;;;;29.15;14.82;;;4.80;99.90;;;;;;5002712;28;20670;-28
2024/01/14 07:46:14;;;;;;;30.50;15.40;;;4.80;99.90;;;;;;4997925;28;20206;-27
2024/01/14 07:48:41;;;;;;;26.80;15.15;;;4.80;99.90;;;;;;5000665;28;20483;-28
2024/01/14 07:51:07;;;;;;;25.73;14.50;;;4.80;99.90;;;;;;5002008;28;20189;-26
2024/01/14 07:53:33;;;;;;;34.03;15.40;;;4.80;99.90;;;;;;5003406;28;20703;-27
2024/01/14 07:56:01;;;;;;;28.67;15.40;;;4.80;99.90;;;;;;5006236;28;20185;-29
2024/01/14 07:58:30;;;;;;;32.15;15.98;;;4.80;99.90;;;;;;5000624;28;20479;-27
2024/01/14 08:00:56;;;;;;;28.95;15.65;;;4.70;99.90;;;;;;5003198;28;20189;-29
2024/01/14 08:03:22;;;;;;;25.00;14.50;;;4.80;99.90;;;;;;5001153;28;20205;-29
2024/01/14 08:05:48;;;;;;;26.70;15.52;;;4.80;99.90;;;;;;5005177;28;20188;-26
2024/01/14 08:08:18;;;;;;;29.27;15.48;;;4.70;99.90;;;;;;4999639;28;20792;-28
2024/01/14 08:10:49;;;;;;;26.45;15.23;;;4.80;99.90;;;;;;5009534;28;20197;-29
2024/01/14 08:13:15;;;;;;;26.08;15.38;;;4.80;99.90;;;;;;4986187;28;20271;-27
2024/01/14 08:15:41;;;;;;;28.38;15.10;;;4.80;99.90;;;;;;4999059;28;20676;-27
2024/01/14 08:18:08;;;;;;;28.63;15.00;;;4.70;99.90;;;;;;4999729;28;20213;-27
2024/01/14 08:20:34;;;;;;;28.15;15.60;;;4.80;99.90;;;;;;4998602;28;20452;-27
2024/01/14 08:23:00;;;;;;;28.05;14.85;;;4.80;99.90;;;;;;4999911;28;20712;-27
2024/01/14 08:25:29;;;;;;;27.08;15.38;;;4.80;99.90;;;;;;4979792;28;20217;-29
2024/01/14 08:27:55;;;;;;;27.13;13.73;;;4.70;99.90;;;;;;5012048;28;20205;-29
2024/01/14 08:30:21;;;;;;;28.65;15.52;;;4.70;99.90;;;;;;5022623;28;20664;-26
2024/01/14 08:32:53;;;;;;;26.58;15.07;;;4.70;99.90;;;;;;5017463;28;20188;-29
2024/01/14 08:35:23;;;;;;;24.13;14.88;;;4.80;99.90;;;;;;5019536;28;20180;-29
2024/01/14 08:37:50;;;;;;;30.65;14.23;;;4.80;99.90;;;;;;4999703;28;20216;-26
2024/01/14 08:40:16;;;;;;;31.73;14.52;;;4.80;99.90;;;;;;5018648;28;20900;-27
2024/01/14 08:42:44;;;;;;;29.58;15.02;;;4.70;99.90;;;;;;5018642;28;20683;-27
2024/01/14 08:45:13;;;;;;;27.73;14.70;;;4.70;99.90;;;;;;5025569;28;20229;-28
2024/01/14 08:47:41;;;;;;;31.38;15.35;;;4.70;99.90;;;;;;5016937;28;20193;-26
2024/01/14 08:50:11;;;;;;;31.55;16.58;;;4.80;99.90;;;;;;5016933;28;20534;-27
2024/01/14 08:52:40;;;;;;;28.75;15.10;;;4.80;99.90;;;;;;5019297;28;20212;-29
2024/01/14 08:55:11;;;;;;;29.42;14.73;;;4.70;99.90;;;;;;5002941;28;20299;-26
2024/01/14 08:57:39;;;;;;;29.60;15.23;;;4.80;99.90;;;;;;5001543;28;20220;-27
2024/01/14 09:00:06;;;;;;;25.73;15.65;;;4.80;99.90;;;;;;5007941;28;20259;-26
2024/01/14 09:02:32;;;;;;;28.00;15.23;;;4.70;99.90;;;;;;5019886;28;20269;-27
2024/01/14 09:04:58;;;;;;;25.80;14.20;;;4.70;99.90;;;;;;5001672;28;20231;-28
2024/01/14 09:07:26;;;;;;;27.27;14.82;;;4.80;99.90;;;;;;4999877;28;20443;-28
2024/01/14 09:09:52;;;;;;;24.30;14.80;;;4.70;99.90;;;;;;5002285;28;20221;-27
2024/01/14 09:12:24;;;;;;;26.30;14.45;;;4.70;99.90;;;;;;5019840;28;20236;-27
2024/01/14 09:14:53;;;;;;;23.92;14.45;;;4.70;99.90;;;;;;5031040;28;20196;-29
2024/01/14 09:17:19;;;;;;;27.45;14.82;;;4.70;99.90;;;;;;5024823;28;20188;-27
2024/01/14 09:19:45;;;;;;;26.08;14.95;;;4.70;99.90;;;;;;5021318;28;20537;-27
2024/01/14 09:22:11;;;;;;;30.45;15.35;;;4.70;99.90;;;;;;5002706;28;20753;-27
2024/01/14 09:24:42;;;;;;;27.80;14.18;;;4.70;99.90;;;;;;5019751;28;20208;-27
2024/01/14 09:27:08;;;;;;;24.35;13.50;;;4.70;99.90;;;;;;5003289;28;20295;-27
2024/01/14 09:29:37;;;;;;;27.05;14.10;;;4.80;99.90;;;;;;5023126;28;20211;-27
2024/01/14 09:32:06;;;;;;;23.48;14.35;;;4.70;99.90;;;;;;5006703;28;20263;-27
2024/01/14 09:34:32;;;;;;;23.13;13.60;;;4.70;99.90;;;;;;5021320;28;20421;-26
2024/01/14 09:36:58;;;;;;;25.70;13.63;;;4.70;99.90;;;;;;5003470;28;20447;-28
2024/01/14 09:39:26;;;;;;;26.00;13.75;;;4.70;99.90;;;;;;5007865;28;20621;-27
2024/01/14 09:42:21;;;;;;;25.73;13.48;;;4.70;99.90;;;;;;5006563;28;20247;-26
2024/01/14 09:44:48;;;;;;;22.67;13.15;;;4.70;99.90;;;;;;5020913;28;20180;-27
2024/01/14 09:47:17;;;;;;;25.88;14.98;;;4.70;99.90;;;;;;5005334;28;20532;-27
2024/01/14 09:49:44;;;;;;;24.50;15.15;;;4.70;99.90;;;;;;5004318;28;20201;-27
2024/01/14 09:52:12;;;;;;;25.65;14.63;;;4.70;99.90;;;;;;5010062;28;20243;-27
2024/01/14 09:54:39;;;;;;;20.58;12.63;;;4.70;99.90;;;;;;5024841;28;20196;-27
2024/01/14 09:57:12;;;;;;;24.08;13.65;;;4.70;99.90;;;;;;5011634;28;20851;-27
2024/01/14 09:59:42;;;;;;;27.52;13.95;;;4.70;99.90;;;;;;5020595;28;20220;-27
2024/01/14 10:02:14;;;;;;;22.85;12.80;;;4.70;99.90;;;;;;5028008;28;20213;-27
2024/01/14 10:04:42;;;;;;;25.67;13.73;;;4.70;99.90;;;;;;5023133;28;20181;-27
2024/01/14 10:07:09;;;;;;;22.63;13.18;;;4.70;99.90;;;;;;5003254;28;20213;-27
2024/01/14 10:09:38;;;;;;;19.75;12.25;;;4.70;99.90;;;;;;5002292;28;20220;-27
2024/01/14 10:12:04;;;;;;;22.42;12.15;;;4.70;99.90;;;;;;5026647;28;20203;-27
2024/01/14 10:14:30;;;;;;;21.20;11.55;;;4.70;99.90;;;;;;5022917;28;20195;-27
2024/01/14 10:17:00;;;;;;;21.57;13.07;;;4.70;99.90;;;;;;5023001;28;20184;-27
2024/01/14 10:19:26;;;;;;;21.92;12.70;;;4.70;99.90;;;;;;5020781;28;20466;-27
2024/01/14 10:21:54;;;;;;;24.92;12.45;;;4.70;99.90;;;;;;5029331;28;20558;-27
2024/01/14 10:24:26;;;;;;;19.95;12.40;;;4.70;99.90;;;;;;5004837;28;20200;-27
2024/01/14 10:26:55;;;;;;;21.13;11.50;;;4.70;99.90;;;;;;5025869;28;20213;-27
2024/01/14 10:29:22;;;;;;;18.20;10.70;;;4.70;99.90;;;;;;5025963;28;20209;-27
2024/01/14 10:31:48;;;;;;;19.52;12.15;;;4.70;99.90;;;;;;5031807;28;20193;-27
2024/01/14 10:34:17;;;;;;;19.58;11.18;;;4.70;99.90;;;;;;5003222;28;20193;-27
2024/01/14 10:36:43;;;;;;;22.60;11.65;;;4.70;99.90;;;;;;5029941;28;20561;-27
2024/01/14 10:39:12;;;;;;;21.08;11.73;;;4.70;99.90;;;;;;5011825;28;20244;-27
2024/01/14 10:41:39;;;;;;;22.65;11.98;;;4.70;99.90;;;;;;5022318;28;20792;-27
2024/01/14 10:44:07;;;;;;;21.80;11.48;;;4.70;99.90;;;;;;5024604;28;20198;-27
2024/01/14 10:46:40;;;;;;;18.98;10.55;;;4.70;99.90;;;;;;5025797;28;20707;-27
2024/01/14 10:49:11;;;;;;;18.83;11.10;;;4.70;99.90;;;;;;5019739;28;20209;-27
2024/01/14 10:51:42;;;;;;;22.45;11.50;;;4.70;99.90;;;;;;5031309;28;20184;-27
2024/01/14 10:54:14;;;;;;;17.50;10.45;;;4.70;99.90;;;;;;5025226;28;20661;-27
2024/01/14 10:56:46;;;;;;;17.60;11.48;;;4.70;99.90;;;;;;5019332;28;20189;-26
2024/01/14 10:59:16;;;;;;;16.02;9.82;;;4.70;99.90;;;;;;5003220;28;20232;-27
2024/01/14 11:01:49;;;;;;;16.38;10.68;;;4.70;99.90;;;;;;5019995;28;20203;-27
2024/01/14 11:04:17;;;;;;;19.25;12.02;;;4.70;99.90;;;;;;5022054;28;21014;-27
2024/01/14 11:06:47;;;;;;;19.23;10.93;;;4.70;99.90;;;;;;4991053;28;20606;-27
2024/01/14 11:09:13;;;;;;;16.52;9.95;;;4.70;99.90;;;;;;5006897;28;20213;-27
2024/01/14 11:11:52;;;;;;;18.70;10.88;;;4.70;99.90;;;;;;5004455;28;20180;-27
2024/01/14 11:14:37;;;;;;;18.50;9.85;;;4.70;99.90;;;;;;5023799;28;20196;-27
2024/01/14 11:17:48;;;;;;;17.05;11.35;;;4.70;99.90;;;;;;5030874;28;20943;-27
2024/01/14 11:20:20;;;;;;;17.50;10.52;;;4.70;99.90;;;;;;5001057;28;20205;-27
2024/01/14 11:22:46;;;;;;;16.50;8.75;;;4.70;99.90;;;;;;5023990;28;20185;-27
2024/01/14 11:25:16;;;;;;;15.32;9.50;;;4.70;99.90;;;;;;5022230;28;20196;-27
2024/01/14 11:27:43;;;;;;;14.88;8.90;;;4.70;99.90;;;;;;5020460;28;20225;-27
2024/01/14 11:30:14;;;;;;;17.55;10.30;;;4.60;99.90;;;;;;5001483;28;20228;-27
2024/01/14 11:32:43;;;;;;;17.63;10.45;;;4.70;99.90;;;;;;5023483;28;20752;-27
2024/01/14 11:35:33;;;;;;;16.40;10.55;;;4.70;99.90;;;;;;5019021;28;20192;-27
2024/01/14 11:38:03;;;;;;;16.23;9.60;;;4.70;99.90;;;;;;5019514;28;20286;-27
2024/01/14 11:40:33;;;;;;;17.93;10.50;;;4.70;99.90;;;;;;5021989;28;20199;-27
2024/01/14 11:43:10;;;;;;;21.23;10.93;;;4.70;99.90;;;;;;5024136;28;20418;-27
2024/01/14 11:45:38;;;;;;;16.80;10.13;;;4.70;99.90;;;;;;5010461;28;20219;-27
2024/01/14 11:48:05;;;;;;;15.10;8.93;;;4.70;99.90;;;;;;5023824;28;20279;-27
2024/01/14 11:50:33;;;;;;;18.60;8.93;;;4.70;99.90;;;;;;5022776;28;20184;-27
2024/01/14 11:53:01;;;;;;;15.13;9.40;;;4.60;99.90;;;;;;5020499;28;20217;-27
2024/01/14 11:55:36;;;;;;;17.35;10.13;;;4.70;99.90;;;;;;5025335;28;20191;-27
2024/01/14 11:58:15;;;;;;;14.38;9.25;;;4.70;99.90;;;;;;5023107;28;20383;-27
2024/01/14 12:00:46;;;;;;;15.30;9.55;;;4.70;99.90;;;;;;5021219;28;20185;-27
2024/01/14 12:03:15;;;;;;;15.95;9.00;;;4.70;99.90;;;;;;5017562;28;20193;-27
2024/01/14 12:05:44;;;;;;;15.98;8.95;;;4.70;99.90;;;;;;5020965;28;20267;-27
2024/01/14 12:08:14;;;;;;;14.80;8.98;;;4.70;99.90;;;;;;5018552;28;20279;-27
2024/01/14 12:10:41;;;;;;;15.90;9.00;;;4.70;99.90;;;;;;4999684;28;20644;-27
2024/01/14 12:13:07;;;;;;;15.85;9.60;;;4.60;99.90;;;;;;5002461;28;20438;-27
2024/01/14 12:15:34;;;;;;;14.10;9.23;;;4.70;99.90;;;;;;5019108;28;20684;-27
2024/01/14 12:18:01;;;;;;;15.25;8.95;;;4.70;99.90;;;;;;5018960;28;20216;-27
2024/01/14 12:20:30;;;;;;;17.13;9.15;;;4.70;99.90;;;;;;5018187;28;20212;-27
2024/01/14 12:23:01;;;;;;;15.82;9.68;;;4.70;99.90;;;;;;5018589;28;20189;-27
2024/01/14 12:25:28;;;;;;;16.60;8.50;;;4.70;99.90;;;;;;5024987;28;20670;-26
2024/01/14 12:27:55;;;;;;;15.73;9.35;;;4.70;99.90;;;;;;5018479;28;20283;-27
2024/01/14 12:30:24;;;;;;;19.25;9.00;;;4.70;99.90;;;;;;4999460;28;20205;-27
2024/01/14 12:32:50;;;;;;;16.52;10.07;;;4.70;99.90;;;;;;5028743;28;20722;-27
2024/01/14 12:35:17;;;;;;;19.23;10.40;;;4.70;99.90;;;;;;5003245;28;20268;-27
2024/01/14 12:37:45;;;;;;;15.02;9.88;;;4.70;99.90;;;;;;5002898;28;20502;-27
2024/01/14 12:40:11;;;;;;;16.35;9.35;;;4.70;99.90;;;;;;5006350;28;20990;-27
2024/01/14 12:42:38;;;;;;;12.75;9.57;;;4.70;99.90;;;;;;5014729;28;20191;-27
2024/01/14 12:45:05;;;;;;;15.88;9.55;;;4.70;99.90;;;;;;5017774;28;20648;-27